sensor_id;sensor_type;location;lat;lon;timestamp;temperature;humidity
69324;DHT22;56470;47.350;8.718;2023-06-10T00:01:50;23.95;46.22
69324;DHT22;56470;47.350;8.718;2023-06-10T00:04:16;23.97;46.31
69324;DHT22;56470;47.350;8.718;2023-06-10T00:06:45;23.92;46.42
69324;DHT22;56470;47.350;8.718;2023-06-10T00:09:13;23.91;46.51
69324;DHT22;56470;47.350;8.718;2023-06-10T00:11:40;23.86;46.56
69324;DHT22;56470;47.350;8.718;2023-06-10T00:14:06;23.82;46.57
69324;DHT22;56470;47.350;8.718;2023-06-10T00:16:31;23.77;46.64
69324;DHT22;56470;47.350;8.718;2023-06-10T00:18:57;23.74;46.62
69324;DHT22;56470;47.350;8.718;2023-06-10T00:21:27;23.73;46.71
69324;DHT22;56470;47.350;8.718;2023-06-10T00:23:53;23.71;46.65
69324;DHT22;56470;47.350;8.718;2023-06-10T00:26:20;23.71;46.73
69324;DHT22;56470;47.350;8.718;2023-06-10T00:28:46;23.68;46.80
69324;DHT22;56470;47.350;8.718;2023-06-10T00:31:11;23.68;46.83
69324;DHT22;56470;47.350;8.718;2023-06-10T00:33:37;23.66;46.81
69324;DHT22;56470;47.350;8.718;2023-06-10T00:36:02;23.60;46.89
69324;DHT22;56470;47.350;8.718;2023-06-10T00:38:27;23.57;46.91
69324;DHT22;56470;47.350;8.718;2023-06-10T00:40:53;23.51;46.98
69324;DHT22;56470;47.350;8.718;2023-06-10T00:43:18;23.45;47.04
69324;DHT22;56470;47.350;8.718;2023-06-10T00:45:43;23.42;47.15
69324;DHT22;56470;47.350;8.718;2023-06-10T00:48:09;23.34;47.14
69324;DHT22;56470;47.350;8.718;2023-06-10T00:50:35;23.33;47.28
69324;DHT22;56470;47.350;8.718;2023-06-10T00:53:04;23.26;47.23
69324;DHT22;56470;47.350;8.718;2023-06-10T00:55:31;23.22;47.34
69324;DHT22;56470;47.350;8.718;2023-06-10T00:57:57;23.12;47.40
69324;DHT22;56470;47.350;8.718;2023-06-10T01:00:24;23.02;47.51
69324;DHT22;56470;47.350;8.718;2023-06-10T01:02:49;23.01;47.66
69324;DHT22;56470;47.350;8.718;2023-06-10T01:05:17;22.99;47.73
69324;DHT22;56470;47.350;8.718;2023-06-10T01:08:38;22.96;48.34
69324;DHT22;56470;47.350;8.718;2023-06-10T01:10:41;22.91;48.15
69324;DHT22;56470;47.350;8.718;2023-06-10T01:13:10;22.91;48.03
69324;DHT22;56470;47.350;8.718;2023-06-10T01:15:37;22.91;48.03
69324;DHT22;56470;47.350;8.718;2023-06-10T01:18:08;22.87;48.30
69324;DHT22;56470;47.350;8.718;2023-06-10T01:20:40;22.90;48.13
69324;DHT22;56470;47.350;8.718;2023-06-10T01:23:07;22.85;48.15
69324;DHT22;56470;47.350;8.718;2023-06-10T01:25:36;22.84;48.20
69324;DHT22;56470;47.350;8.718;2023-06-10T01:28:07;22.84;48.42
69324;DHT22;56470;47.350;8.718;2023-06-10T01:31:09;22.74;49.67
69324;DHT22;56470;47.350;8.718;2023-06-10T01:33:40;22.70;48.48
69324;DHT22;56470;47.350;8.718;2023-06-10T01:36:06;22.63;48.55
69324;DHT22;56470;47.350;8.718;2023-06-10T01:38:46;22.60;49.64
69324;DHT22;56470;47.350;8.718;2023-06-10T01:41:13;22.64;48.69
69324;DHT22;56470;47.350;8.718;2023-06-10T01:43:39;22.65;48.79
69324;DHT22;56470;47.350;8.718;2023-06-10T01:46:05;22.71;48.68
69324;DHT22;56470;47.350;8.718;2023-06-10T01:48:32;22.68;48.62
69324;DHT22;56470;47.350;8.718;2023-06-10T01:50:58;22.70;48.61
69324;DHT22;56470;47.350;8.718;2023-06-10T01:53:23;22.71;48.65
69324;DHT22;56470;47.350;8.718;2023-06-10T01:55:49;22.68;48.68
69324;DHT22;56470;47.350;8.718;2023-06-10T01:58:14;22.67;48.75
69324;DHT22;56470;47.350;8.718;2023-06-10T02:00:40;22.65;48.69
69324;DHT22;56470;47.350;8.718;2023-06-10T02:03:05;22.67;48.73
69324;DHT22;56470;47.350;8.718;2023-06-10T02:05:31;22.60;48.74
69324;DHT22;56470;47.350;8.718;2023-06-10T02:07:56;22.56;48.82
69324;DHT22;56470;47.350;8.718;2023-06-10T02:10:21;22.54;48.92
69324;DHT22;56470;47.350;8.718;2023-06-10T02:12:47;22.51;48.95
69324;DHT22;56470;47.350;8.718;2023-06-10T02:15:12;22.47;49.04
69324;DHT22;56470;47.350;8.718;2023-06-10T02:17:37;22.46;49.03
69324;DHT22;56470;47.350;8.718;2023-06-10T02:20:04;22.49;48.95
69324;DHT22;56470;47.350;8.718;2023-06-10T02:22:34;22.47;49.00
69324;DHT22;56470;47.350;8.718;2023-06-10T02:24:59;22.43;49.05
69324;DHT22;56470;47.350;8.718;2023-06-10T02:27:25;22.46;48.99
69324;DHT22;56470;47.350;8.718;2023-06-10T02:29:50;22.42;49.02
69324;DHT22;56470;47.350;8.718;2023-06-10T02:32:15;22.39;49.03
69324;DHT22;56470;47.350;8.718;2023-06-10T02:34:41;22.33;49.11
69324;DHT22;56470;47.350;8.718;2023-06-10T02:37:08;22.28;49.24
69324;DHT22;56470;47.350;8.718;2023-06-10T02:39:33;22.22;49.29
69324;DHT22;56470;47.350;8.718;2023-06-10T02:41:59;22.19;49.38
69324;DHT22;56470;47.350;8.718;2023-06-10T02:44:25;22.19;49.43
69324;DHT22;56470;47.350;8.718;2023-06-10T02:46:50;22.17;49.47
69324;DHT22;56470;47.350;8.718;2023-06-10T02:49:16;22.13;49.56
69324;DHT22;56470;47.350;8.718;2023-06-10T02:51:41;22.10;49.65
69324;DHT22;56470;47.350;8.718;2023-06-10T02:54:07;22.10;49.72
69324;DHT22;56470;47.350;8.718;2023-06-10T02:56:32;22.05;49.85
69324;DHT22;56470;47.350;8.718;2023-06-10T02:58:58;22.02;49.91
69324;DHT22;56470;47.350;8.718;2023-06-10T03:01:23;21.98;50.04
69324;DHT22;56470;47.350;8.718;2023-06-10T03:03:49;21.92;49.96
69324;DHT22;56470;47.350;8.718;2023-06-10T03:06:15;21.89;50.16
69324;DHT22;56470;47.350;8.718;2023-06-10T03:08:41;21.92;50.17
69324;DHT22;56470;47.350;8.718;2023-06-10T03:11:06;21.91;50.06
69324;DHT22;56470;47.350;8.718;2023-06-10T03:13:32;21.82;50.37
69324;DHT22;56470;47.350;8.718;2023-06-10T03:15:58;21.82;50.63
69324;DHT22;56470;47.350;8.718;2023-06-10T03:18:27;21.81;51.02
69324;DHT22;56470;47.350;8.718;2023-06-10T03:20:53;21.80;50.87
69324;DHT22;56470;47.350;8.718;2023-06-10T03:23:20;21.73;51.02
69324;DHT22;56470;47.350;8.718;2023-06-10T03:25:45;21.70;51.19
69324;DHT22;56470;47.350;8.718;2023-06-10T03:28:14;21.65;51.48
69324;DHT22;56470;47.350;8.718;2023-06-10T03:30:39;21.63;51.44
69324;DHT22;56470;47.350;8.718;2023-06-10T03:33:05;21.63;51.56
69324;DHT22;56470;47.350;8.718;2023-06-10T03:35:30;21.60;51.51
69324;DHT22;56470;47.350;8.718;2023-06-10T03:37:57;21.60;51.49
69324;DHT22;56470;47.350;8.718;2023-06-10T03:40:23;21.54;51.57
69324;DHT22;56470;47.350;8.718;2023-06-10T03:42:48;21.53;51.74
69324;DHT22;56470;47.350;8.718;2023-06-10T03:45:13;21.53;51.77
69324;DHT22;56470;47.350;8.718;2023-06-10T03:47:39;21.50;51.62
69324;DHT22;56470;47.350;8.718;2023-06-10T03:50:06;21.42;51.89
69324;DHT22;56470;47.350;8.718;2023-06-10T03:52:33;21.43;52.01
69324;DHT22;56470;47.350;8.718;2023-06-10T03:54:59;21.36;51.97
69324;DHT22;56470;47.350;8.718;2023-06-10T03:57:24;21.35;51.97
69324;DHT22;56470;47.350;8.718;2023-06-10T03:59:49;21.32;52.26
69324;DHT22;56470;47.350;8.718;2023-06-10T04:02:15;21.25;52.28
69324;DHT22;56470;47.350;8.718;2023-06-10T04:04:41;21.20;52.50
69324;DHT22;56470;47.350;8.718;2023-06-10T04:07:06;21.19;52.61
69324;DHT22;56470;47.350;8.718;2023-06-10T04:09:33;21.25;52.39
69324;DHT22;56470;47.350;8.718;2023-06-10T04:11:58;21.27;52.42
69324;DHT22;56470;47.350;8.718;2023-06-10T04:14:23;21.29;52.55
69324;DHT22;56470;47.350;8.718;2023-06-10T04:16:49;21.25;52.55
69324;DHT22;56470;47.350;8.718;2023-06-10T04:19:15;21.25;52.73
69324;DHT22;56470;47.350;8.718;2023-06-10T04:21:41;21.27;52.74
69324;DHT22;56470;47.350;8.718;2023-06-10T04:24:07;21.33;52.68
69324;DHT22;56470;47.350;8.718;2023-06-10T04:26:32;21.42;52.47
69324;DHT22;56470;47.350;8.718;2023-06-10T04:28:58;21.49;52.21
69324;DHT22;56470;47.350;8.718;2023-06-10T04:31:24;21.54;52.10
69324;DHT22;56470;47.350;8.718;2023-06-10T04:33:49;21.64;51.96
69324;DHT22;56470;47.350;8.718;2023-06-10T04:36:15;21.65;51.82
69324;DHT22;56470;47.350;8.718;2023-06-10T04:38:40;21.73;51.66
69324;DHT22;56470;47.350;8.718;2023-06-10T04:41:06;21.78;51.42
69324;DHT22;56470;47.350;8.718;2023-06-10T04:43:31;21.88;51.29
69324;DHT22;56470;47.350;8.718;2023-06-10T04:45:57;21.94;51.14
69324;DHT22;56470;47.350;8.718;2023-06-10T04:48:22;21.99;51.06
69324;DHT22;56470;47.350;8.718;2023-06-10T04:50:49;22.05;50.77
69324;DHT22;56470;47.350;8.718;2023-06-10T04:53:15;22.06;50.89
69324;DHT22;56470;47.350;8.718;2023-06-10T04:55:44;22.20;50.79
69324;DHT22;56470;47.350;8.718;2023-06-10T04:58:09;22.29;50.58
69324;DHT22;56470;47.350;8.718;2023-06-10T05:00:35;22.37;50.37
69324;DHT22;56470;47.350;8.718;2023-06-10T05:03:03;22.44;50.27
69324;DHT22;56470;47.350;8.718;2023-06-10T05:05:28;22.51;50.10
69324;DHT22;56470;47.350;8.718;2023-06-10T05:07:54;22.60;49.96
69324;DHT22;56470;47.350;8.718;2023-06-10T05:10:22;22.70;49.73
69324;DHT22;56470;47.350;8.718;2023-06-10T05:12:47;22.75;49.54
69324;DHT22;56470;47.350;8.718;2023-06-10T05:15:13;22.83;49.47
69324;DHT22;56470;47.350;8.718;2023-06-10T05:17:38;22.85;49.37
69324;DHT22;56470;47.350;8.718;2023-06-10T05:20:04;22.96;49.21
69324;DHT22;56470;47.350;8.718;2023-06-10T05:22:29;23.06;48.94
69324;DHT22;56470;47.350;8.718;2023-06-10T05:24:55;23.06;48.87
69324;DHT22;56470;47.350;8.718;2023-06-10T05:27:20;23.16;48.92
69324;DHT22;56470;47.350;8.718;2023-06-10T05:29:47;23.32;48.76
69324;DHT22;56470;47.350;8.718;2023-06-10T05:32:12;23.49;48.59
69324;DHT22;56470;47.350;8.718;2023-06-10T05:34:38;23.63;48.28
69324;DHT22;56470;47.350;8.718;2023-06-10T05:37:03;23.71;48.01
69324;DHT22;56470;47.350;8.718;2023-06-10T05:39:29;23.75;47.65
69324;DHT22;56470;47.350;8.718;2023-06-10T05:41:54;23.77;47.76
69324;DHT22;56470;47.350;8.718;2023-06-10T05:44:19;23.86;47.70
69324;DHT22;56470;47.350;8.718;2023-06-10T05:46:45;24.01;47.61
69324;DHT22;56470;47.350;8.718;2023-06-10T05:49:10;24.12;47.33
69324;DHT22;56470;47.350;8.718;2023-06-10T05:51:36;24.29;47.14
69324;DHT22;56470;47.350;8.718;2023-06-10T05:54:02;24.39;47.01
69324;DHT22;56470;47.350;8.718;2023-06-10T05:56:28;24.47;46.87
69324;DHT22;56470;47.350;8.718;2023-06-10T05:58:53;24.54;46.62
69324;DHT22;56470;47.350;8.718;2023-06-10T06:01:19;24.56;46.50
69324;DHT22;56470;47.350;8.718;2023-06-10T06:03:44;24.67;46.46
69324;DHT22;56470;47.350;8.718;2023-06-10T06:06:10;24.70;46.22
69324;DHT22;56470;47.350;8.718;2023-06-10T06:08:35;24.78;46.20
69324;DHT22;56470;47.350;8.718;2023-06-10T06:11:00;24.88;46.06
69324;DHT22;56470;47.350;8.718;2023-06-10T06:13:26;25.04;45.85
69324;DHT22;56470;47.350;8.718;2023-06-10T06:15:51;25.14;45.66
69324;DHT22;56470;47.350;8.718;2023-06-10T06:18:16;25.22;45.35
69324;DHT22;56470;47.350;8.718;2023-06-10T06:20:43;25.23;45.33
69324;DHT22;56470;47.350;8.718;2023-06-10T06:23:08;25.27;45.31
69324;DHT22;56470;47.350;8.718;2023-06-10T06:25:35;25.33;45.15
69324;DHT22;56470;47.350;8.718;2023-06-10T06:28:02;25.44;45.05
69324;DHT22;56470;47.350;8.718;2023-06-10T06:30:27;25.47;44.85
69324;DHT22;56470;47.350;8.718;2023-06-10T06:32:52;25.54;44.88
69324;DHT22;56470;47.350;8.718;2023-06-10T06:35:18;25.67;44.72
69324;DHT22;56470;47.350;8.718;2023-06-10T06:37:43;25.75;44.62
69324;DHT22;56470;47.350;8.718;2023-06-10T06:40:15;25.92;44.18
69324;DHT22;56470;47.350;8.718;2023-06-10T06:42:40;25.97;44.20
69324;DHT22;56470;47.350;8.718;2023-06-10T06:45:06;26.09;44.08
69324;DHT22;56470;47.350;8.718;2023-06-10T06:47:33;26.21;43.85
69324;DHT22;56470;47.350;8.718;2023-06-10T06:49:58;26.37;43.67
69324;DHT22;56470;47.350;8.718;2023-06-10T06:52:24;26.54;43.45
69324;DHT22;56470;47.350;8.718;2023-06-10T06:54:49;26.67;43.21
69324;DHT22;56470;47.350;8.718;2023-06-10T06:57:14;26.78;42.96
69324;DHT22;56470;47.350;8.718;2023-06-10T06:59:40;26.84;42.76
69324;DHT22;56470;47.350;8.718;2023-06-10T07:02:05;26.92;42.67
69324;DHT22;56470;47.350;8.718;2023-06-10T07:04:31;26.98;42.47
69324;DHT22;56470;47.350;8.718;2023-06-10T07:06:56;27.04;42.46
69324;DHT22;56470;47.350;8.718;2023-06-10T07:09:22;27.12;42.30
69324;DHT22;56470;47.350;8.718;2023-06-10T07:11:47;27.19;42.14
69324;DHT22;56470;47.350;8.718;2023-06-10T07:14:12;27.29;42.07
69324;DHT22;56470;47.350;8.718;2023-06-10T07:16:38;27.35;41.91
69324;DHT22;56470;47.350;8.718;2023-06-10T07:19:03;27.43;41.79
69324;DHT22;56470;47.350;8.718;2023-06-10T07:21:30;27.59;41.59
69324;DHT22;56470;47.350;8.718;2023-06-10T07:23:55;27.68;41.46
69324;DHT22;56470;47.350;8.718;2023-06-10T07:26:23;27.80;41.19
69324;DHT22;56470;47.350;8.718;2023-06-10T07:28:49;27.90;41.07
69324;DHT22;56470;47.350;8.718;2023-06-10T07:31:14;27.97;40.90
69324;DHT22;56470;47.350;8.718;2023-06-10T07:33:39;28.02;40.69
69324;DHT22;56470;47.350;8.718;2023-06-10T07:36:06;27.97;40.67
69324;DHT22;56470;47.350;8.718;2023-06-10T07:38:31;28.00;40.65
69324;DHT22;56470;47.350;8.718;2023-06-10T07:40:57;28.13;40.55
69324;DHT22;56470;47.350;8.718;2023-06-10T07:43:22;28.26;40.37
69324;DHT22;56470;47.350;8.718;2023-06-10T07:45:50;28.31;40.08
69324;DHT22;56470;47.350;8.718;2023-06-10T07:48:16;28.42;40.13
69324;DHT22;56470;47.350;8.718;2023-06-10T07:50:41;28.52;39.82
69324;DHT22;56470;47.350;8.718;2023-06-10T07:53:06;28.53;39.73
69324;DHT22;56470;47.350;8.718;2023-06-10T07:55:32;28.53;39.80
69324;DHT22;56470;47.350;8.718;2023-06-10T07:57:57;28.64;39.76
69324;DHT22;56470;47.350;8.718;2023-06-10T08:00:23;28.75;39.52
69324;DHT22;56470;47.350;8.718;2023-06-10T08:02:48;28.77;39.41
69324;DHT22;56470;47.350;8.718;2023-06-10T08:05:14;28.80;39.49
69324;DHT22;56470;47.350;8.718;2023-06-10T08:07:40;28.88;39.25
69324;DHT22;56470;47.350;8.718;2023-06-10T08:10:06;28.86;39.16
69324;DHT22;56470;47.350;8.718;2023-06-10T08:12:35;28.68;39.32
69324;DHT22;56470;47.350;8.718;2023-06-10T08:15:01;28.74;39.55
69324;DHT22;56470;47.350;8.718;2023-06-10T08:17:26;28.74;39.41
69324;DHT22;56470;47.350;8.718;2023-06-10T08:19:52;28.80;39.39
69324;DHT22;56470;47.350;8.718;2023-06-10T08:22:17;28.88;39.32
69324;DHT22;56470;47.350;8.718;2023-06-10T08:24:43;28.92;39.23
69324;DHT22;56470;47.350;8.718;2023-06-10T08:27:08;28.98;39.20
69324;DHT22;56470;47.350;8.718;2023-06-10T08:29:34;28.97;38.72
69324;DHT22;56470;47.350;8.718;2023-06-10T08:31:59;28.81;39.06
69324;DHT22;56470;47.350;8.718;2023-06-10T08:34:25;28.86;39.20
69324;DHT22;56470;47.350;8.718;2023-06-10T08:36:50;28.97;39.05
69324;DHT22;56470;47.350;8.718;2023-06-10T08:39:21;28.97;38.85
69324;DHT22;56470;47.350;8.718;2023-06-10T08:42:04;29.07;37.66
69324;DHT22;56470;47.350;8.718;2023-06-10T08:44:31;29.22;38.24
69324;DHT22;56470;47.350;8.718;2023-06-10T08:47:05;29.22;37.92
69324;DHT22;56470;47.350;8.718;2023-06-10T08:49:33;29.39;38.23
69324;DHT22;56470;47.350;8.718;2023-06-10T08:52:03;29.54;38.01
69324;DHT22;56470;47.350;8.718;2023-06-10T08:54:32;29.66;37.71
69324;DHT22;56470;47.350;8.718;2023-06-10T08:56:59;29.74;37.78
69324;DHT22;56470;47.350;8.718;2023-06-10T08:59:25;29.87;37.49
69324;DHT22;56470;47.350;8.718;2023-06-10T09:01:51;29.91;37.36
69324;DHT22;56470;47.350;8.718;2023-06-10T09:04:18;30.00;37.23
69324;DHT22;56470;47.350;8.718;2023-06-10T09:06:44;30.09;37.01
69324;DHT22;56470;47.350;8.718;2023-06-10T09:09:10;30.24;36.87
69324;DHT22;56470;47.350;8.718;2023-06-10T09:11:38;30.36;36.79
69324;DHT22;56470;47.350;8.718;2023-06-10T09:14:03;30.47;36.73
69324;DHT22;56470;47.350;8.718;2023-06-10T09:16:28;30.63;36.34
69324;DHT22;56470;47.350;8.718;2023-06-10T09:18:54;30.70;36.19
69324;DHT22;56470;47.350;8.718;2023-06-10T09:21:31;30.57;35.84
69324;DHT22;56470;47.350;8.718;2023-06-10T09:23:56;30.39;36.24
69324;DHT22;56470;47.350;8.718;2023-06-10T09:26:27;30.40;36.07
69324;DHT22;56470;47.350;8.718;2023-06-10T09:29:21;30.73;35.64
69324;DHT22;56470;47.350;8.718;2023-06-10T09:31:46;31.15;36.36
69324;DHT22;56470;47.350;8.718;2023-06-10T09:34:15;31.43;35.39
69324;DHT22;56470;47.350;8.718;2023-06-10T09:36:42;31.57;35.65
69324;DHT22;56470;47.350;8.718;2023-06-10T09:39:28;31.73;35.59
69324;DHT22;56470;47.350;8.718;2023-06-10T09:41:56;31.87;35.27
69324;DHT22;56470;47.350;8.718;2023-06-10T09:44:24;31.90;35.02
69324;DHT22;56470;47.350;8.718;2023-06-10T09:46:50;31.87;35.12
69324;DHT22;56470;47.350;8.718;2023-06-10T09:49:17;31.83;35.02
69324;DHT22;56470;47.350;8.718;2023-06-10T09:51:52;31.69;34.71
69324;DHT22;56470;47.350;8.718;2023-06-10T09:54:20;31.59;35.03
69324;DHT22;56470;47.350;8.718;2023-06-10T09:56:51;31.47;35.10
69324;DHT22;56470;47.350;8.718;2023-06-10T09:59:32;31.36;34.52
69324;DHT22;56470;47.350;8.718;2023-06-10T10:01:58;31.33;34.97
69324;DHT22;56470;47.350;8.718;2023-06-10T10:04:44;31.07;34.49
69324;DHT22;56470;47.350;8.718;2023-06-10T10:07:23;30.86;35.04
69324;DHT22;56470;47.350;8.718;2023-06-10T10:10:07;30.57;35.30
69324;DHT22;56470;47.350;8.718;2023-06-10T10:12:42;30.40;35.69
69324;DHT22;56470;47.350;8.718;2023-06-10T10:15:27;30.14;35.83
69324;DHT22;56470;47.350;8.718;2023-06-10T10:18:15;29.98;36.25
69324;DHT22;56470;47.350;8.718;2023-06-10T10:20:47;29.91;36.50
69324;DHT22;56470;47.350;8.718;2023-06-10T10:23:36;29.90;36.53
69324;DHT22;56470;47.350;8.718;2023-06-10T10:26:10;29.88;36.60
69324;DHT22;56470;47.350;8.718;2023-06-10T10:28:41;29.85;36.75
69324;DHT22;56470;47.350;8.718;2023-06-10T10:31:36;29.82;36.75
69324;DHT22;56470;47.350;8.718;2023-06-10T10:34:53;29.77;37.04
69324;DHT22;56470;47.350;8.718;2023-06-10T13:54:43;26.92;40.74
69324;DHT22;56470;47.350;8.718;2023-06-10T13:57:09;26.98;40.74
69324;DHT22;56470;47.350;8.718;2023-06-10T13:59:35;26.91;40.25
69324;DHT22;56470;47.350;8.718;2023-06-10T14:02:01;26.94;40.27
69324;DHT22;56470;47.350;8.718;2023-06-10T14:04:27;26.97;39.68
69324;DHT22;56470;47.350;8.718;2023-06-10T14:06:52;26.97;39.72
69324;DHT22;56470;47.350;8.718;2023-06-10T14:09:17;27.04;39.56
69324;DHT22;56470;47.350;8.718;2023-06-10T14:11:44;27.05;39.26
69324;DHT22;56470;47.350;8.718;2023-06-10T14:14:09;27.04;39.13
69324;DHT22;56470;47.350;8.718;2023-06-10T14:16:35;26.98;39.08
69324;DHT22;56470;47.350;8.718;2023-06-10T14:19:00;26.95;39.31
69324;DHT22;56470;47.350;8.718;2023-06-10T14:21:25;26.97;39.14
69324;DHT22;56470;47.350;8.718;2023-06-10T14:23:51;27.02;39.02
69324;DHT22;56470;47.350;8.718;2023-06-10T14:26:18;27.09;38.86
69324;DHT22;56470;47.350;8.718;2023-06-10T14:28:44;27.12;38.77
69324;DHT22;56470;47.350;8.718;2023-06-10T14:31:09;26.98;38.02
69324;DHT22;56470;47.350;8.718;2023-06-10T14:33:34;26.86;37.80
69324;DHT22;56470;47.350;8.718;2023-06-10T14:36:00;26.78;38.31
69324;DHT22;56470;47.350;8.718;2023-06-10T14:38:25;26.77;38.24
69324;DHT22;56470;47.350;8.718;2023-06-10T14:40:51;26.78;38.21
69324;DHT22;56470;47.350;8.718;2023-06-10T14:43:17;26.78;38.55
69324;DHT22;56470;47.350;8.718;2023-06-10T14:45:42;26.87;38.46
69324;DHT22;56470;47.350;8.718;2023-06-10T14:48:08;26.94;38.25
69324;DHT22;56470;47.350;8.718;2023-06-10T14:50:37;26.91;37.96
69324;DHT22;56470;47.350;8.718;2023-06-10T14:53:03;26.91;38.38
69324;DHT22;56470;47.350;8.718;2023-06-10T14:55:28;26.97;38.16
69324;DHT22;56470;47.350;8.718;2023-06-10T14:57:54;26.95;37.55
69324;DHT22;56470;47.350;8.718;2023-06-10T15:00:20;26.99;37.51
69324;DHT22;56470;47.350;8.718;2023-06-10T15:02:49;26.99;37.37
69324;DHT22;56470;47.350;8.718;2023-06-10T15:05:15;27.04;37.76
69324;DHT22;56470;47.350;8.718;2023-06-10T15:07:41;26.95;38.01
69324;DHT22;56470;47.350;8.718;2023-06-10T15:10:07;26.97;37.90
69324;DHT22;56470;47.350;8.718;2023-06-10T15:12:32;27.01;37.58
69324;DHT22;56470;47.350;8.718;2023-06-10T15:14:57;27.02;37.54
69324;DHT22;56470;47.350;8.718;2023-06-10T15:17:23;27.01;37.96
69324;DHT22;56470;47.350;8.718;2023-06-10T15:19:48;27.02;38.08
69324;DHT22;56470;47.350;8.718;2023-06-10T15:22:13;27.12;38.20
69324;DHT22;56470;47.350;8.718;2023-06-10T15:24:39;27.02;38.04
69324;DHT22;56470;47.350;8.718;2023-06-10T15:27:04;27.08;37.91
69324;DHT22;56470;47.350;8.718;2023-06-10T15:29:30;27.04;37.88
69324;DHT22;56470;47.350;8.718;2023-06-10T15:31:56;27.05;38.07
69324;DHT22;56470;47.350;8.718;2023-06-10T15:34:21;26.97;38.38
69324;DHT22;56470;47.350;8.718;2023-06-10T15:36:46;27.01;38.40
69324;DHT22;56470;47.350;8.718;2023-06-10T15:39:12;26.97;38.29
69324;DHT22;56470;47.350;8.718;2023-06-10T15:41:37;26.98;37.89
69324;DHT22;56470;47.350;8.718;2023-06-10T15:44:02;26.94;37.76
69324;DHT22;56470;47.350;8.718;2023-06-10T15:46:29;26.91;37.62
69324;DHT22;56470;47.350;8.718;2023-06-10T15:48:55;26.90;37.57
69324;DHT22;56470;47.350;8.718;2023-06-10T15:51:20;26.92;37.63
69324;DHT22;56470;47.350;8.718;2023-06-10T15:53:46;26.94;37.81
69324;DHT22;56470;47.350;8.718;2023-06-10T15:56:12;27.04;37.81
69324;DHT22;56470;47.350;8.718;2023-06-10T15:58:38;26.99;37.82
69324;DHT22;56470;47.350;8.718;2023-06-10T16:01:04;27.01;38.05
69324;DHT22;56470;47.350;8.718;2023-06-10T16:03:29;27.04;38.34
69324;DHT22;56470;47.350;8.718;2023-06-10T16:05:54;26.99;38.56
69324;DHT22;56470;47.350;8.718;2023-06-10T16:08:20;27.04;38.56
69324;DHT22;56470;47.350;8.718;2023-06-10T16:10:45;27.05;38.58
69324;DHT22;56470;47.350;8.718;2023-06-10T16:13:11;27.05;38.63
69324;DHT22;56470;47.350;8.718;2023-06-10T16:15:36;27.04;38.72
69324;DHT22;56470;47.350;8.718;2023-06-10T16:18:01;27.02;38.71
69324;DHT22;56470;47.350;8.718;2023-06-10T16:20:27;27.05;38.87
69324;DHT22;56470;47.350;8.718;2023-06-10T16:22:54;27.15;38.84
69324;DHT22;56470;47.350;8.718;2023-06-10T16:25:19;27.09;38.97
69324;DHT22;56470;47.350;8.718;2023-06-10T16:27:45;26.88;39.09
69324;DHT22;56470;47.350;8.718;2023-06-10T16:30:10;26.76;39.14
69324;DHT22;56470;47.350;8.718;2023-06-10T16:32:38;26.70;39.23
69324;DHT22;56470;47.350;8.718;2023-06-10T16:35:03;26.81;39.23
69324;DHT22;56470;47.350;8.718;2023-06-10T16:37:29;26.83;38.62
69324;DHT22;56470;47.350;8.718;2023-06-10T16:39:54;26.77;38.40
69324;DHT22;56470;47.350;8.718;2023-06-10T16:42:19;26.76;38.62
69324;DHT22;56470;47.350;8.718;2023-06-10T16:44:45;26.83;38.67
69324;DHT22;56470;47.350;8.718;2023-06-10T16:47:10;26.92;38.51
69324;DHT22;56470;47.350;8.718;2023-06-10T16:49:36;26.98;38.48
69324;DHT22;56470;47.350;8.718;2023-06-10T16:52:03;26.98;38.42
69324;DHT22;56470;47.350;8.718;2023-06-10T16:54:29;27.05;38.60
69324;DHT22;56470;47.350;8.718;2023-06-10T16:56:54;27.05;38.65
69324;DHT22;56470;47.350;8.718;2023-06-10T16:59:19;27.06;38.71
69324;DHT22;56470;47.350;8.718;2023-06-10T17:01:45;26.99;38.98
69324;DHT22;56470;47.350;8.718;2023-06-10T17:04:10;26.90;38.91
69324;DHT22;56470;47.350;8.718;2023-06-10T17:06:36;26.88;38.91
69324;DHT22;56470;47.350;8.718;2023-06-10T17:09:02;26.91;38.93
69324;DHT22;56470;47.350;8.718;2023-06-10T17:11:28;26.90;39.02
69324;DHT22;56470;47.350;8.718;2023-06-10T17:13:54;26.86;38.79
69324;DHT22;56470;47.350;8.718;2023-06-10T17:16:20;26.81;38.98
69324;DHT22;56470;47.350;8.718;2023-06-10T17:18:45;26.78;39.02
69324;DHT22;56470;47.350;8.718;2023-06-10T17:21:11;26.80;39.16
69324;DHT22;56470;47.350;8.718;2023-06-10T17:23:36;26.86;39.19
69324;DHT22;56470;47.350;8.718;2023-06-10T17:26:02;26.94;39.24
69324;DHT22;56470;47.350;8.718;2023-06-10T17:28:27;26.94;39.35
69324;DHT22;56470;47.350;8.718;2023-06-10T17:30:52;26.98;39.38
69324;DHT22;56470;47.350;8.718;2023-06-10T17:33:18;26.97;39.47
69324;DHT22;56470;47.350;8.718;2023-06-10T17:35:43;26.92;39.69
69324;DHT22;56470;47.350;8.718;2023-06-10T17:38:08;26.91;39.74
69324;DHT22;56470;47.350;8.718;2023-06-10T17:40:34;26.86;39.77
69324;DHT22;56470;47.350;8.718;2023-06-10T17:42:59;26.71;39.87
69324;DHT22;56470;47.350;8.718;2023-06-10T17:45:25;26.64;40.26
69324;DHT22;56470;47.350;8.718;2023-06-10T17:47:50;26.60;40.50
69324;DHT22;56470;47.350;8.718;2023-06-10T17:50:15;26.57;40.44
69324;DHT22;56470;47.350;8.718;2023-06-10T17:52:41;26.57;40.60
69324;DHT22;56470;47.350;8.718;2023-06-10T17:55:06;26.54;40.58
69324;DHT22;56470;47.350;8.718;2023-06-10T17:57:31;26.50;40.62
69324;DHT22;56470;47.350;8.718;2023-06-10T17:59:57;26.53;40.59
69324;DHT22;56470;47.350;8.718;2023-06-10T18:02:23;26.40;40.67
69324;DHT22;56470;47.350;8.718;2023-06-10T18:04:48;26.40;40.73
69324;DHT22;56470;47.350;8.718;2023-06-10T18:07:13;26.37;40.88
69324;DHT22;56470;47.350;8.718;2023-06-10T18:09:38;26.39;40.91
69324;DHT22;56470;47.350;8.718;2023-06-10T18:12:04;26.44;40.94
69324;DHT22;56470;47.350;8.718;2023-06-10T18:14:30;26.50;41.02
69324;DHT22;56470;47.350;8.718;2023-06-10T18:16:56;26.56;40.99
69324;DHT22;56470;47.350;8.718;2023-06-10T18:19:21;26.57;41.03
69324;DHT22;56470;47.350;8.718;2023-06-10T18:21:46;26.61;41.05
69324;DHT22;56470;47.350;8.718;2023-06-10T18:24:12;26.65;40.94
69324;DHT22;56470;47.350;8.718;2023-06-10T18:26:37;26.64;40.94
69324;DHT22;56470;47.350;8.718;2023-06-10T18:29:02;26.59;40.98
69324;DHT22;56470;47.350;8.718;2023-06-10T18:31:28;26.54;41.00
69324;DHT22;56470;47.350;8.718;2023-06-10T18:33:53;26.56;41.08
69324;DHT22;56470;47.350;8.718;2023-06-10T18:36:18;26.54;41.10
69324;DHT22;56470;47.350;8.718;2023-06-10T18:38:44;26.59;41.13
69324;DHT22;56470;47.350;8.718;2023-06-10T18:41:10;26.60;41.17
69324;DHT22;56470;47.350;8.718;2023-06-10T18:43:36;26.59;41.19
69324;DHT22;56470;47.350;8.718;2023-06-10T18:46:01;26.50;41.30